Estación de Freire

Ultimos registro cada 15 minutos 70
Estación Fecha / Hora Temperatura Humedad Lluvia Velocidad Dirección Radiación Presion
70 Freire 05-05-2026 17:45 13,8 100 0,3 0 171 0 1009,6
69 Freire 05-05-2026 17:30 13,8 99 0 0,4 171 0 1009,6
68 Freire 05-05-2026 17:15 13,9 100 0 0 171 0 1009,6
67 Freire 05-05-2026 17:00 14 100 0 0 131 0 1009,6
66 Freire 05-05-2026 16:45 14,1 100 0 0 47 0 1009,6
65 Freire 05-05-2026 16:30 14,1 100 0 0 45 12 1009,6
64 Freire 05-05-2026 16:15 14,1 100 0,3 0 117 23 1009,6
63 Freire 05-05-2026 16:00 14,1 100 0 0,9 131 21 1009,6
62 Freire 05-05-2026 15:45 14,2 100 0 0 64 25 1009,6
61 Freire 05-05-2026 15:30 14,2 100 0 0,9 116 28 1009,6
60 Freire 05-05-2026 15:15 14,1 100 0 0,4 108 40 1009,6
59 Freire 05-05-2026 15:00 14,1 100 0 0,4 108 40 1009,6
58 Freire 05-05-2026 14:45 14,1 100 0 0 91 40 1009,6
57 Freire 05-05-2026 14:30 14 100 0 0 203 42 1009,6
56 Freire 05-05-2026 14:15 14 100 0,3 0 27 37 1009,6
55 Freire 05-05-2026 14:00 14,1 100 0 0 164 65 1009,6
54 Freire 05-05-2026 13:45 13,9 100 0 0 117 62 1009,6
53 Freire 05-05-2026 13:30 14,1 100 0 0,4 31 54 1009,6
52 Freire 05-05-2026 13:15 14,1 100 0 0 31 88 1009,6
51 Freire 05-05-2026 13:00 13,9 100 0 0 31 74 1009,6
50 Freire 05-05-2026 12:45 13,7 100 0 0 30 88 1009,6
49 Freire 05-05-2026 12:30 13,6 100 0 0 30 51 1009,6
48 Freire 05-05-2026 12:15 13,4 100 0 0,4 30 42 1009,6
47 Freire 05-05-2026 12:00 13,4 100 0 0 30 40 1009,6
46 Freire 05-05-2026 11:45 13,3 100 0 0 176 35 1009,6
45 Freire 05-05-2026 11:30 13,2 100 0 0 176 56 1009,6
44 Freire 05-05-2026 11:15 13,1 100 0 0,4 176 42 1009,6
43 Freire 05-05-2026 11:00 13 100 0 0 176 28 1009,6
42 Freire 05-05-2026 10:45 12,9 100 0 0 176 53 1009,6
41 Freire 05-05-2026 10:30 12,7 100 0 0 176 42 1009,6
40 Freire 05-05-2026 10:15 12,6 100 0 0 176 25 1009,6
39 Freire 05-05-2026 10:00 12,4 100 0 0 176 42 1009,6
38 Freire 05-05-2026 09:45 12,3 100 0 0 176 33 1009,6
37 Freire 05-05-2026 09:30 12,2 100 0 0 176 32 1009,6
36 Freire 05-05-2026 09:15 12,1 100 0 0 176 53 1009,6
35 Freire 05-05-2026 09:00 11,9 100 0 0,4 176 19 1009,6
34 Freire 05-05-2026 08:45 11,9 100 0 0 176 14 1009,6
33 Freire 05-05-2026 08:30 11,6 100 0,3 0,4 176 26 1009,6
32 Freire 05-05-2026 08:15 11,4 100 0 0 176 11 1009,6
31 Freire 05-05-2026 08:00 11,3 100 0 0 176 0 1009,6
30 Freire 05-05-2026 07:45 11,4 100 0 0 176 0 1009,6
29 Freire 05-05-2026 07:30 11,3 100 0,3 0 176 0 1009,6
28 Freire 05-05-2026 07:15 11,3 100 0 0 176 0 1009,6
27 Freire 05-05-2026 07:00 11,2 100 0 0 176 0 1009,6
26 Freire 05-05-2026 06:45 11,2 100 0 0 176 0 1009,6
25 Freire 05-05-2026 06:30 11,2 100 0 0 176 0 1009,6
24 Freire 05-05-2026 06:15 11,2 100 0 0 176 0 1009,6
23 Freire 05-05-2026 06:00 11,2 100 0,3 0,4 176 0 1009,6
22 Freire 05-05-2026 05:45 11,2 100 0 0 176 0 1009,6
21 Freire 05-05-2026 05:30 11,2 100 0 0 176 0 1009,6
20 Freire 05-05-2026 05:15 11,2 100 0 0 176 0 1009,6
19 Freire 05-05-2026 05:00 11,2 100 0 0 176 0 1009,6
18 Freire 05-05-2026 04:45 11,2 100 0 0 176 0 1009,6
17 Freire 05-05-2026 04:30 11,2 100 0 0 176 0 1009,6
16 Freire 05-05-2026 04:15 11,2 100 0 0,4 176 0 1009,6
15 Freire 05-05-2026 04:00 11,2 100 0 0 176 0 1009,6
14 Freire 05-05-2026 03:45 11,3 100 0 0 176 0 1009,6
13 Freire 05-05-2026 03:15 11,3 100 0 0 176 0 1009,6
12 Freire 05-05-2026 03:00 11,3 100 0 0 176 0 1009,6
11 Freire 05-05-2026 02:45 11,4 100 0 0 176 0 1009,6
10 Freire 05-05-2026 02:30 11,4 99 0 0 176 0 1009,6
9 Freire 05-05-2026 02:15 11,5 99 0 0,4 176 0 1009,6
8 Freire 05-05-2026 02:00 11,6 100 0,3 0,4 176 0 1009,6
7 Freire 05-05-2026 01:30 11,8 100 0 0 176 0 1009,6
6 Freire 05-05-2026 01:15 11,8 100 0,3 0 176 0 1009,6
5 Freire 05-05-2026 01:00 11,8 100 0 0 176 0 1009,6
4 Freire 05-05-2026 00:45 11,9 100 0,3 0 176 0 1009,6
3 Freire 05-05-2026 00:30 11,8 100 0,3 0 176 0 1009,6
2 Freire 05-05-2026 00:15 11,8 100 0,3 0,4 176 0 1009,6
1 Freire 05-05-2026 00:00 11,8 100 0 0 176 0 1009,6